Time;durP1;ratioP1;P1;durP2;ratioP2;P2;SDS_P1;SDS_P2;PMS_P1;PMS_P2;Temp;Humidity;BMP_temperature;BMP_pressure;BME280_temperature;BME280_humidity;BME280_pressure;Samples;Min_cycle;Max_cycle;Signal;HPM_P1;HPM_P2
2023/07/17 00:01:07;;;;;;;2.72;2.20;;;;;;;;;;10323221;28;20030;-61
2023/07/17 00:06:08;;;;;;;2.78;2.22;;;;;;;;;;10324191;28;20120;-66
2023/07/17 00:11:08;;;;;;;2.20;2.00;;;;;;;;;;10323881;28;20472;-65
2023/07/17 00:16:09;;;;;;;2.47;2.10;;;;;;;;;;10316769;28;20371;-66
2023/07/17 00:21:10;;;;;;;4.90;2.20;;;;;;;;;;10312802;28;20033;-63
2023/07/17 00:26:11;;;;;;;5.55;2.53;;;;;;;;;;10322981;28;20042;-65
2023/07/17 00:31:11;;;;;;;2.65;2.20;;;;;;;;;;10323623;28;20026;-65
2023/07/17 00:36:12;;;;;;;2.38;2.17;;;;;;;;;;10321633;28;20037;-65
2023/07/17 00:41:12;;;;;;;2.20;2.00;;;;;;;;;;10323509;28;20031;-64
2023/07/17 00:46:13;;;;;;;2.95;2.13;;;;;;;;;;10326823;28;20033;-66
2023/07/17 00:51:14;;;;;;;3.00;2.05;;;;;;;;;;10304413;28;20047;-65
2023/07/17 00:56:15;;;;;;;2.17;1.98;;;;;;;;;;10332839;28;20029;-66
2023/07/17 01:01:16;;;;;;;2.47;2.08;;;;;;;;;;10331245;28;20034;-61
2023/07/17 01:06:16;;;;;;;2.53;1.92;;;;;;;;;;10354091;28;20025;-62
2023/07/17 01:11:17;;;;;;;2.45;1.85;;;;;;;;;;10372488;28;20394;-62
2023/07/17 01:16:18;;;;;;;2.03;1.88;;;;;;;;;;10371657;28;20414;-61
2023/07/17 01:21:24;;;;;;;3.47;1.90;;;;;;;;;;10371945;28;20053;-60
2023/07/17 01:26:25;;;;;;;1.90;1.77;;;;;;;;;;10371548;28;20026;-61
2023/07/17 01:31:25;;;;;;;2.10;1.75;;;;;;;;;;10370942;28;20022;-61
2023/07/17 01:36:26;;;;;;;2.58;1.92;;;;;;;;;;10361311;28;20478;-60
2023/07/17 01:41:27;;;;;;;2.50;1.90;;;;;;;;;;10361667;28;20162;-60
2023/07/17 01:46:27;;;;;;;5.45;2.10;;;;;;;;;;10370763;28;20038;-60
2023/07/17 01:51:28;;;;;;;2.30;2.10;;;;;;;;;;10370242;28;20033;-60
2023/07/17 01:56:29;;;;;;;2.03;1.83;;;;;;;;;;10349050;28;20595;-61
2023/07/17 02:01:31;;;;;;;3.30;2.00;;;;;;;;;;10362655;28;20034;-61
2023/07/17 02:06:32;;;;;;;3.17;2.00;;;;;;;;;;10345480;28;20515;-61
2023/07/17 02:11:32;;;;;;;2.97;2.20;;;;;;;;;;10370572;28;20033;-62
2023/07/17 02:16:33;;;;;;;3.55;2.15;;;;;;;;;;10369002;28;20481;-61
2023/07/17 02:21:34;;;;;;;2.28;1.75;;;;;;;;;;10369473;28;20145;-61
2023/07/17 02:26:34;;;;;;;2.53;1.77;;;;;;;;;;10366857;28;20029;-62
2023/07/17 02:31:35;;;;;;;3.47;1.77;;;;;;;;;;10367242;28;20030;-61
2023/07/17 02:36:37;;;;;;;2.13;2.00;;;;;;;;;;10356732;28;20042;-62
2023/07/17 02:41:38;;;;;;;1.90;1.80;;;;;;;;;;10366478;28;20046;-60
2023/07/17 02:46:38;;;;;;;2.85;1.98;;;;;;;;;;10366002;28;20092;-60
2023/07/17 02:51:39;;;;;;;1.80;1.65;;;;;;;;;;10365854;28;20034;-59
2023/07/17 02:56:39;;;;;;;1.67;1.58;;;;;;;;;;10366959;28;20045;-59
2023/07/17 03:01:40;;;;;;;2.78;1.80;;;;;;;;;;10362662;28;20414;-59
2023/07/17 03:06:41;;;;;;;1.95;1.80;;;;;;;;;;10315753;28;20378;-60
2023/07/17 03:11:42;;;;;;;3.60;1.95;;;;;;;;;;10319014;28;20038;-59
2023/07/17 03:16:42;;;;;;;1.80;1.70;;;;;;;;;;10326812;28;20038;-60
2023/07/17 03:21:43;;;;;;;1.85;1.73;;;;;;;;;;10321760;28;20034;-61
2023/07/17 03:26:45;;;;;;;1.90;1.70;;;;;;;;;;10325622;28;20084;-61
2023/07/17 03:31:45;;;;;;;2.67;2.10;;;;;;;;;;10325867;28;20471;-61
2023/07/17 03:36:46;;;;;;;2.00;1.80;;;;;;;;;;10326378;28;20034;-63
2023/07/17 03:41:46;;;;;;;3.50;2.00;;;;;;;;;;10320380;28;20038;-61
2023/07/17 03:46:47;;;;;;;3.75;1.90;;;;;;;;;;10325189;28;20041;-61
2023/07/17 03:51:48;;;;;;;1.70;1.60;;;;;;;;;;10319490;28;20479;-61
2023/07/17 03:56:48;;;;;;;1.88;1.65;;;;;;;;;;10321905;28;20034;-61
2023/07/17 04:01:49;;;;;;;2.78;2.22;;;;;;;;;;10328297;28;20048;-64
2023/07/17 04:06:50;;;;;;;2.35;1.92;;;;;;;;;;10364915;28;20037;-61
2023/07/17 04:11:51;;;;;;;3.92;1.80;;;;;;;;;;10364525;28;20022;-59
2023/07/17 04:16:51;;;;;;;2.45;1.77;;;;;;;;;;10365004;28;20481;-60
2023/07/17 04:21:52;;;;;;;2.00;1.77;;;;;;;;;;10362140;28;20504;-60
2023/07/17 04:26:52;;;;;;;2.45;1.80;;;;;;;;;;10354966;28;20470;-63
2023/07/17 04:31:53;;;;;;;4.18;1.80;;;;;;;;;;10365012;28;20377;-61
2023/07/17 04:36:54;;;;;;;2.08;1.85;;;;;;;;;;10347493;28;20053;-61
2023/07/17 04:41:56;;;;;;;1.90;1.80;;;;;;;;;;10357628;28;20045;-64
2023/07/17 04:46:56;;;;;;;5.07;1.90;;;;;;;;;;10365200;28;20168;-62
2023/07/17 04:51:57;;;;;;;2.00;1.80;;;;;;;;;;10363339;28;20026;-61
2023/07/17 04:56:58;;;;;;;3.55;2.83;;;;;;;;;;10344581;28;20026;-58
2023/07/17 05:01:58;;;;;;;5.15;3.53;;;;;;;;;;10349740;28;20050;-60
2023/07/17 05:06:59;;;;;;;17.27;6.38;;;;;;;;;;10356035;28;20030;-63
2023/07/17 05:12:00;;;;;;;35.45;6.70;;;;;;;;;;10359827;28;20034;-64
2023/07/17 05:17:00;;;;;;;11.60;6.25;;;;;;;;;;10360832;28;20045;-64
2023/07/17 05:22:01;;;;;;;18.05;7.50;;;;;;;;;;10363221;28;20242;-65
2023/07/17 05:27:01;;;;;;;15.20;8.52;;;;;;;;;;10363294;28;20045;-63
2023/07/17 05:32:03;;;;;;;16.92;7.20;;;;;;;;;;10361522;28;20033;-63
2023/07/17 05:37:05;;;;;;;16.98;8.68;;;;;;;;;;10371119;28;20030;-65
2023/07/17 05:42:05;;;;;;;22.02;8.43;;;;;;;;;;10364653;28;20030;-62
2023/07/17 05:47:06;;;;;;;13.80;8.32;;;;;;;;;;10363958;28;20509;-63
2023/07/17 05:52:07;;;;;;;14.35;8.52;;;;;;;;;;10370606;28;20022;-63
2023/07/17 05:57:08;;;;;;;14.00;8.82;;;;;;;;;;10365526;28;20488;-62
2023/07/17 06:02:08;;;;;;;15.98;8.70;;;;;;;;;;10361173;28;20053;-63
2023/07/17 06:07:10;;;;;;;19.13;8.80;;;;;;;;;;10329745;28;20034;-63
2023/07/17 06:12:11;;;;;;;17.40;9.70;;;;;;;;;;10328069;28;20129;-63
2023/07/17 06:17:11;;;;;;;28.48;9.82;;;;;;;;;;10322682;28;20080;-63
2023/07/17 06:22:12;;;;;;;35.67;10.25;;;;;;;;;;10328352;28;20422;-63
2023/07/17 06:27:12;;;;;;;28.58;9.90;;;;;;;;;;10327394;28;20375;-66
2023/07/17 06:32:13;;;;;;;31.27;10.05;;;;;;;;;;10328158;28;20449;-67
2023/07/17 06:37:14;;;;;;;24.95;10.13;;;;;;;;;;10328535;28;20057;-66
2023/07/17 06:42:14;;;;;;;30.25;10.07;;;;;;;;;;10325558;28;20077;-67
2023/07/17 06:47:15;;;;;;;24.55;9.15;;;;;;;;;;10317767;28;20023;-65
2023/07/17 06:52:15;;;;;;;23.08;8.90;;;;;;;;;;10319037;28;20033;-65
2023/07/17 06:57:16;;;;;;;26.63;8.93;;;;;;;;;;10317772;28;20030;-65
2023/07/17 07:02:16;;;;;;;16.17;7.55;;;;;;;;;;10317590;28;20053;-63
2023/07/17 07:07:17;;;;;;;26.10;8.15;;;;;;;;;;10368061;28;20029;-67
2023/07/17 07:12:18;;;;;;;22.65;8.00;;;;;;;;;;10358349;28;20406;-67
2023/07/17 07:17:18;;;;;;;28.25;9.20;;;;;;;;;;10365885;28;20022;-65
2023/07/17 07:22:19;;;;;;;25.85;8.38;;;;;;;;;;10365358;28;20034;-64
2023/07/17 07:27:19;;;;;;;23.15;7.38;;;;;;;;;;10366004;28;20021;-64
2023/07/17 07:32:20;;;;;;;21.65;8.45;;;;;;;;;;10366227;28;20029;-65
2023/07/17 07:37:20;;;;;;;22.83;7.82;;;;;;;;;;10366426;28;20033;-65
2023/07/17 07:42:21;;;;;;;30.83;8.70;;;;;;;;;;10366797;28;20038;-66
2023/07/17 07:47:22;;;;;;;20.50;7.97;;;;;;;;;;10365130;28;20041;-67
2023/07/17 07:52:22;;;;;;;18.13;7.20;;;;;;;;;;10365494;28;20038;-65
2023/07/17 07:57:23;;;;;;;16.85;6.80;;;;;;;;;;10363601;28;20032;-64
2023/07/17 08:02:24;;;;;;;16.58;7.32;;;;;;;;;;10346660;28;20402;-64
2023/07/17 08:07:24;;;;;;;18.70;7.10;;;;;;;;;;10324808;28;20022;-63
2023/07/17 08:12:25;;;;;;;12.55;6.80;;;;;;;;;;10324820;28;20030;-63
2023/07/17 08:17:25;;;;;;;16.52;8.07;;;;;;;;;;10321670;28;20045;-66
2023/07/17 08:22:26;;;;;;;17.08;7.40;;;;;;;;;;10316620;28;20022;-64
2023/07/17 08:27:27;;;;;;;13.45;6.75;;;;;;;;;;10307123;28;20022;-65
2023/07/17 08:32:27;;;;;;;21.58;7.90;;;;;;;;;;10322653;28;20029;-63
2023/07/17 08:37:28;;;;;;;19.95;7.45;;;;;;;;;;10319202;28;20022;-63
2023/07/17 08:42:29;;;;;;;17.45;7.15;;;;;;;;;;10303649;28;20034;-63
2023/07/17 08:47:31;;;;;;;19.13;6.75;;;;;;;;;;10299551;28;20051;-64
2023/07/17 08:52:32;;;;;;;16.80;6.93;;;;;;;;;;10311756;28;20030;-64
2023/07/17 08:57:35;;;;;;;14.50;6.82;;;;;;;;;;10319320;28;20045;-66
2023/07/17 09:02:35;;;;;;;14.23;5.85;;;;;;;;;;10329995;28;20065;-63
2023/07/17 09:07:36;;;;;;;12.05;7.45;;;;;;;;;;10360439;28;20042;-67
2023/07/17 09:12:37;;;;;;;11.15;6.50;;;;;;;;;;10365579;28;20026;-67
2023/07/17 09:17:37;;;;;;;11.60;6.55;;;;;;;;;;10367891;28;20107;-67
2023/07/17 09:22:38;;;;;;;16.73;6.90;;;;;;;;;;10370097;28;20034;-62
2023/07/17 09:27:47;;;;;;;12.18;6.93;;;;;;;;;;10360319;28;20030;-62
2023/07/17 09:32:49;;;;;;;14.98;5.97;;;;;;;;;;10365431;28;20092;-62
2023/07/17 09:37:50;;;;;;;13.40;6.68;;;;;;;;;;10358463;28;20033;-63
2023/07/17 09:42:54;;;;;;;15.23;7.07;;;;;;;;;;10361073;28;20018;-63
2023/07/17 09:47:55;;;;;;;13.85;6.72;;;;;;;;;;10360645;28;20054;-61
2023/07/17 09:52:56;;;;;;;10.05;6.70;;;;;;;;;;10349726;28;20026;-61
2023/07/17 09:58:01;;;;;;;18.33;8.02;;;;;;;;;;10362913;28;20061;-61
2023/07/17 10:03:10;;;;;;;14.65;6.53;;;;;;;;;;10327086;28;20406;-63
2023/07/17 10:08:13;;;;;;;15.23;6.97;;;;;;;;;;10308546;28;20125;-62
2023/07/17 10:13:14;;;;;;;9.85;6.25;;;;;;;;;;10310157;28;20128;-61
2023/07/17 10:18:15;;;;;;;14.98;6.95;;;;;;;;;;10319490;28;20334;-63
2023/07/17 10:23:27;;;;;;;16.02;7.20;;;;;;;;;;10318272;28;20611;-61
2023/07/17 10:28:33;;;;;;;12.90;5.95;;;;;;;;;;10328103;28;20022;-61
2023/07/17 10:33:38;;;;;;;15.18;7.35;;;;;;;;;;10325708;28;20255;-62
2023/07/17 10:38:39;;;;;;;14.30;6.78;;;;;;;;;;10326333;28;20030;-61
2023/07/17 10:43:58;;;;;;;9.30;6.50;;;;;;;;;;10326935;28;20035;-61
2023/07/17 10:49:09;;;;;;;14.85;6.72;;;;;;;;;;10317224;28;20026;-61
2023/07/17 10:54:15;;;;;;;11.73;5.82;;;;;;;;;;10327453;28;20026;-62
2023/07/17 10:59:19;;;;;;;8.07;5.78;;;;;;;;;;10326790;28;20030;-61
2023/07/17 11:04:20;;;;;;;12.43;6.15;;;;;;;;;;10345040;28;20135;-64
2023/07/17 11:09:21;;;;;;;12.30;5.93;;;;;;;;;;10362697;28;20034;-63
2023/07/17 11:14:21;;;;;;;10.35;5.20;;;;;;;;;;10367236;28;20038;-61
2023/07/17 11:19:22;;;;;;;11.57;6.15;;;;;;;;;;10367194;28;20031;-62
2023/07/17 11:24:23;;;;;;;15.60;5.68;;;;;;;;;;10357792;28;20030;-64
2023/07/17 11:29:24;;;;;;;17.73;5.82;;;;;;;;;;10354071;28;20096;-61
2023/07/17 11:34:25;;;;;;;14.27;5.45;;;;;;;;;;10360270;28;20021;-62
2023/07/17 11:39:31;;;;;;;10.52;5.50;;;;;;;;;;10356565;28;20399;-62
2023/07/17 11:44:32;;;;;;;10.02;5.32;;;;;;;;;;10342158;28;20401;-62
2023/07/17 11:49:34;;;;;;;12.43;5.78;;;;;;;;;;10364953;28;20092;-64
2023/07/17 11:54:38;;;;;;;10.88;5.40;;;;;;;;;;10343732;28;20027;-62
2023/07/17 11:59:39;;;;;;;14.07;5.38;;;;;;;;;;10357056;28;20084;-63
2023/07/17 12:04:41;;;;;;;12.05;6.20;;;;;;;;;;10337283;28;20525;-64
2023/07/17 12:09:42;;;;;;;9.38;6.18;;;;;;;;;;10323923;28;20046;-62
2023/07/17 12:14:42;;;;;;;16.58;6.45;;;;;;;;;;10317090;28;20026;-64
2023/07/17 12:19:43;;;;;;;9.23;5.65;;;;;;;;;;10302826;28;20443;-65
2023/07/17 12:24:44;;;;;;;13.93;6.10;;;;;;;;;;10309178;28;20081;-64
2023/07/17 12:29:44;;;;;;;16.75;6.65;;;;;;;;;;10310255;28;20207;-62
2023/07/17 12:34:45;;;;;;;12.40;5.60;;;;;;;;;;10321322;28;20390;-61
2023/07/17 12:39:45;;;;;;;12.77;5.88;;;;;;;;;;10323741;28;20393;-62
2023/07/17 12:44:46;;;;;;;11.40;6.03;;;;;;;;;;10314993;28;20042;-61
2023/07/17 12:49:48;;;;;;;12.13;6.38;;;;;;;;;;10317043;28;20023;-62
2023/07/17 12:54:49;;;;;;;13.88;6.78;;;;;;;;;;10328576;28;20474;-61
2023/07/17 12:59:49;;;;;;;16.98;6.20;;;;;;;;;;10325212;28;20042;-60
2023/07/17 13:04:50;;;;;;;13.45;6.18;;;;;;;;;;10358700;28;20038;-60
2023/07/17 13:09:50;;;;;;;10.65;5.65;;;;;;;;;;10363526;28;20027;-61
2023/07/17 13:14:51;;;;;;;8.80;5.22;;;;;;;;;;10369735;28;20030;-60
2023/07/17 13:19:52;;;;;;;9.90;5.60;;;;;;;;;;10359205;28;20042;-64
2023/07/17 13:24:52;;;;;;;8.48;5.30;;;;;;;;;;10358867;28;20342;-60
2023/07/17 13:29:53;;;;;;;9.07;5.47;;;;;;;;;;10370913;28;20041;-60
2023/07/17 13:34:53;;;;;;;9.88;5.93;;;;;;;;;;10375180;28;20386;-66
2023/07/17 13:39:54;;;;;;;9.48;4.82;;;;;;;;;;10371122;28;20565;-66
2023/07/17 13:44:59;;;;;;;7.53;4.70;;;;;;;;;;10378285;28;20378;-66
2023/07/17 13:50:01;;;;;;;7.38;4.80;;;;;;;;;;10368820;28;20527;-65
2023/07/17 13:55:02;;;;;;;11.45;5.15;;;;;;;;;;10360424;28;20057;-66
2023/07/17 14:00:03;;;;;;;9.32;4.32;;;;;;;;;;10364962;28;20026;-66
2023/07/17 14:05:05;;;;;;;9.70;5.10;;;;;;;;;;10363964;28;20100;-62
2023/07/17 14:10:06;;;;;;;8.13;5.13;;;;;;;;;;10366901;28;20014;-64
2023/07/17 14:15:07;;;;;;;10.48;4.40;;;;;;;;;;10369770;28;20032;-66
2023/07/17 14:20:08;;;;;;;8.10;4.60;;;;;;;;;;10369741;28;20033;-66
2023/07/17 14:25:09;;;;;;;8.25;4.47;;;;;;;;;;10357655;28;20113;-66
2023/07/17 14:30:10;;;;;;;6.43;4.30;;;;;;;;;;10357247;28;20026;-66
2023/07/17 14:35:11;;;;;;;9.48;4.40;;;;;;;;;;10360298;28;20030;-66
2023/07/17 14:40:12;;;;;;;7.93;4.57;;;;;;;;;;10368673;28;20038;-60
2023/07/17 14:45:12;;;;;;;7.13;4.50;;;;;;;;;;10360380;28;20379;-60
2023/07/17 14:50:14;;;;;;;8.70;5.10;;;;;;;;;;10356323;28;20026;-60
2023/07/17 14:55:16;;;;;;;12.77;5.75;;;;;;;;;;10368252;28;20370;-60
2023/07/17 15:00:19;;;;;;;13.60;6.53;;;;;;;;;;10366708;28;20033;-61
2023/07/17 15:05:20;;;;;;;11.40;6.00;;;;;;;;;;10366977;28;20045;-61
2023/07/17 15:10:20;;;;;;;12.73;6.35;;;;;;;;;;10364847;28;20400;-60
2023/07/17 15:15:21;;;;;;;12.23;5.75;;;;;;;;;;10365090;28;20037;-60
2023/07/17 15:20:22;;;;;;;12.05;6.10;;;;;;;;;;10364320;28;20038;-62
2023/07/17 15:25:22;;;;;;;10.68;5.65;;;;;;;;;;10363277;28;20281;-60
2023/07/17 15:30:23;;;;;;;11.68;6.35;;;;;;;;;;10366809;28;20029;-60
2023/07/17 15:35:23;;;;;;;11.90;5.38;;;;;;;;;;10366057;28;20037;-61
2023/07/17 15:40:24;;;;;;;8.05;5.25;;;;;;;;;;10351273;28;20030;-65
2023/07/17 15:45:28;;;;;;;10.85;5.80;;;;;;;;;;10362077;28;20029;-60
2023/07/17 15:50:28;;;;;;;9.18;5.18;;;;;;;;;;10366423;28;20157;-60
2023/07/17 15:55:30;;;;;;;9.02;5.55;;;;;;;;;;10348042;28;20165;-60
2023/07/17 16:00:31;;;;;;;10.43;5.13;;;;;;;;;;10365284;28;20036;-60
2023/07/17 16:05:31;;;;;;;9.23;5.50;;;;;;;;;;10364530;28;20041;-60
2023/07/17 16:10:32;;;;;;;8.77;5.40;;;;;;;;;;10348763;28;20100;-60
2023/07/17 16:15:33;;;;;;;10.20;4.97;;;;;;;;;;10361075;28;20469;-60
2023/07/17 16:20:36;;;;;;;9.02;4.88;;;;;;;;;;10335378;28;20038;-60
2023/07/17 16:25:36;;;;;;;11.32;5.38;;;;;;;;;;10355899;28;20112;-62
2023/07/17 16:30:37;;;;;;;7.57;5.10;;;;;;;;;;10362538;28;20385;-61
2023/07/17 16:35:37;;;;;;;11.35;4.55;;;;;;;;;;10356748;28;20990;-60
2023/07/17 16:40:38;;;;;;;8.50;4.80;;;;;;;;;;10354879;28;20033;-61
2023/07/17 16:45:39;;;;;;;6.93;4.68;;;;;;;;;;10352545;28;20030;-60
2023/07/17 16:50:40;;;;;;;8.73;4.47;;;;;;;;;;10360721;28;20038;-60
2023/07/17 16:55:41;;;;;;;9.60;4.85;;;;;;;;;;10363187;28;20109;-61
2023/07/17 17:00:41;;;;;;;8.55;4.40;;;;;;;;;;10363619;28;20413;-60
2023/07/17 17:05:42;;;;;;;6.22;4.00;;;;;;;;;;10328175;28;20042;-63
2023/07/17 17:10:42;;;;;;;8.32;4.40;;;;;;;;;;10319642;28;20049;-61
2023/07/17 17:15:43;;;;;;;4.85;3.80;;;;;;;;;;10307056;28;20038;-60
2023/07/17 17:20:44;;;;;;;8.75;4.18;;;;;;;;;;10318241;28;20034;-60
2023/07/17 17:25:45;;;;;;;6.35;4.40;;;;;;;;;;10319843;28;20030;-60
2023/07/17 17:30:46;;;;;;;6.50;4.38;;;;;;;;;;10325840;28;20030;-60
2023/07/17 17:35:46;;;;;;;7.00;4.18;;;;;;;;;;10328694;28;20031;-60
2023/07/17 17:40:47;;;;;;;6.05;4.03;;;;;;;;;;10324552;28;20027;-64
2023/07/17 17:45:48;;;;;;;6.45;3.90;;;;;;;;;;10329917;28;20023;-60
2023/07/17 17:50:49;;;;;;;7.45;4.18;;;;;;;;;;10326442;28;20022;-62
2023/07/17 17:55:50;;;;;;;10.98;4.45;;;;;;;;;;10325421;28;20335;-60
2023/07/17 18:00:51;;;;;;;9.48;4.40;;;;;;;;;;10320874;28;20034;-60
2023/07/17 18:05:52;;;;;;;5.75;4.13;;;;;;;;;;10332247;28;20497;-61
2023/07/17 18:10:52;;;;;;;4.30;3.65;;;;;;;;;;10329698;28;20023;-60
2023/07/17 18:15:53;;;;;;;7.30;4.85;;;;;;;;;;10328481;28;20218;-61
2023/07/17 18:20:53;;;;;;;9.02;4.97;;;;;;;;;;10328408;28;20046;-60
2023/07/17 18:25:54;;;;;;;23.88;9.88;;;;;;;;;;10327905;28;20034;-60
2023/07/17 18:30:55;;;;;;;31.65;10.30;;;;;;;;;;10317532;28;20026;-61
2023/07/17 18:35:55;;;;;;;20.50;9.23;;;;;;;;;;10325929;28;20045;-64
2023/07/17 18:40:56;;;;;;;35.83;11.23;;;;;;;;;;10339040;28;20042;-61
2023/07/17 18:45:56;;;;;;;32.20;11.10;;;;;;;;;;10326469;28;20038;-61
2023/07/17 18:50:57;;;;;;;24.90;9.52;;;;;;;;;;10330341;28;20050;-62
2023/07/17 18:55:58;;;;;;;22.50;9.18;;;;;;;;;;10323453;28;20034;-61
2023/07/17 19:00:58;;;;;;;19.13;8.48;;;;;;;;;;10322895;28;20143;-64
2023/07/17 19:05:59;;;;;;;19.60;7.88;;;;;;;;;;10357881;28;20054;-61
2023/07/17 19:11:01;;;;;;;23.08;9.35;;;;;;;;;;10359433;28;20041;-61
2023/07/17 19:16:01;;;;;;;27.60;9.82;;;;;;;;;;10351807;28;20370;-60
2023/07/17 19:21:02;;;;;;;17.80;8.18;;;;;;;;;;10356878;28;20026;-61
2023/07/17 19:26:03;;;;;;;20.40;9.43;;;;;;;;;;10352382;28;20033;-61
2023/07/17 19:31:03;;;;;;;24.02;8.95;;;;;;;;;;10364742;28;20045;-61
2023/07/17 19:36:12;;;;;;;20.65;8.98;;;;;;;;;;10367037;28;20030;-60
2023/07/17 19:41:21;;;;;;;20.13;8.82;;;;;;;;;;10366540;28;20030;-60
2023/07/17 19:46:21;;;;;;;21.15;9.00;;;;;;;;;;10362890;28;20113;-60
2023/07/17 19:51:22;;;;;;;19.20;8.95;;;;;;;;;;10357671;28;20504;-60
2023/07/17 19:56:23;;;;;;;19.90;8.65;;;;;;;;;;10364357;28;20366;-61
2023/07/17 20:01:35;;;;;;;21.20;9.00;;;;;;;;;;10363367;28;20022;-61
2023/07/17 20:06:46;;;;;;;21.10;8.00;;;;;;;;;;10364888;28;20113;-60
2023/07/17 20:11:56;;;;;;;18.10;8.85;;;;;;;;;;10352836;28;20029;-61
2023/07/17 20:16:56;;;;;;;23.08;8.68;;;;;;;;;;10362761;28;20029;-60
2023/07/17 20:21:58;;;;;;;21.70;8.75;;;;;;;;;;10362126;28;20045;-60
2023/07/17 20:26:58;;;;;;;18.17;8.45;;;;;;;;;;10364376;28;20022;-64
2023/07/17 20:31:59;;;;;;;19.77;8.93;;;;;;;;;;10364020;28;20034;-61
2023/07/17 20:36:59;;;;;;;20.17;7.95;;;;;;;;;;10364960;28;20022;-64
2023/07/17 20:42:00;;;;;;;18.38;7.80;;;;;;;;;;10364910;28;20269;-60
2023/07/17 20:47:00;;;;;;;20.83;8.40;;;;;;;;;;10362662;28;20120;-62
2023/07/17 20:52:01;;;;;;;16.15;7.65;;;;;;;;;;10363783;28;20034;-60
2023/07/17 20:57:01;;;;;;;16.35;7.68;;;;;;;;;;10365030;28;20076;-60
2023/07/17 21:02:02;;;;;;;17.30;7.82;;;;;;;;;;10360544;28;20037;-60
2023/07/17 21:07:05;;;;;;;18.20;8.20;;;;;;;;;;10371744;28;20032;-60
2023/07/17 21:12:06;;;;;;;16.88;7.00;;;;;;;;;;10365808;28;20034;-60
2023/07/17 21:17:06;;;;;;;18.10;8.13;;;;;;;;;;10363894;28;20458;-60
2023/07/17 21:22:07;;;;;;;14.93;7.68;;;;;;;;;;10369582;28;20042;-61
2023/07/17 21:27:08;;;;;;;10.32;6.80;;;;;;;;;;10367951;28;20034;-61
2023/07/17 21:32:09;;;;;;;14.73;7.28;;;;;;;;;;10362724;28;20502;-61
2023/07/17 21:37:09;;;;;;;15.40;7.25;;;;;;;;;;10363101;28;20029;-61
2023/07/17 21:42:10;;;;;;;15.52;7.47;;;;;;;;;;10366192;28;20034;-61
2023/07/17 21:47:11;;;;;;;16.13;7.38;;;;;;;;;;10360390;28;20037;-61
2023/07/17 21:52:11;;;;;;;15.25;7.57;;;;;;;;;;10354627;28;20034;-61
2023/07/17 21:57:18;;;;;;;16.40;7.43;;;;;;;;;;10364264;28;20106;-63
2023/07/17 22:02:20;;;;;;;11.90;7.50;;;;;;;;;;10359713;28;20053;-62
2023/07/17 22:07:20;;;;;;;14.57;7.20;;;;;;;;;;10363294;28;20034;-61
2023/07/17 22:12:21;;;;;;;13.35;6.47;;;;;;;;;;10361680;28;20516;-61
2023/07/17 22:17:23;;;;;;;24.67;8.80;;;;;;;;;;10352140;28;20477;-60
2023/07/17 22:22:23;;;;;;;18.40;7.28;;;;;;;;;;10357530;28;20128;-59
2023/07/17 22:27:24;;;;;;;15.07;6.93;;;;;;;;;;10347601;28;20029;-59
2023/07/17 22:32:26;;;;;;;15.38;6.70;;;;;;;;;;10351146;28;20497;-59
2023/07/17 22:37:26;;;;;;;10.10;6.22;;;;;;;;;;10361630;28;20022;-59
2023/07/17 22:42:27;;;;;;;11.55;5.63;;;;;;;;;;10363166;28;20428;-60
2023/07/17 22:47:27;;;;;;;13.40;5.80;;;;;;;;;;10363579;28;20350;-58
2023/07/17 22:52:28;;;;;;;9.32;5.78;;;;;;;;;;10364915;28;20147;-59
2023/07/17 22:57:29;;;;;;;11.10;5.60;;;;;;;;;;10352861;28;20022;-58
2023/07/17 23:02:30;;;;;;;11.02;5.75;;;;;;;;;;10346833;28;20054;-69
2023/07/17 23:07:30;;;;;;;9.43;5.38;;;;;;;;;;10317696;28;20023;-68
2023/07/17 23:12:31;;;;;;;9.35;5.10;;;;;;;;;;10322481;28;20023;-66
2023/07/17 23:17:31;;;;;;;9.82;5.15;;;;;;;;;;10327641;28;20038;-67
2023/07/17 23:22:33;;;;;;;10.00;5.10;;;;;;;;;;10310851;28;20038;-67
2023/07/17 23:27:37;;;;;;;10.20;5.55;;;;;;;;;;10325537;28;20049;-67
2023/07/17 23:32:38;;;;;;;10.00;5.13;;;;;;;;;;10326600;28;20034;-67
2023/07/17 23:37:38;;;;;;;7.30;5.25;;;;;;;;;;10322145;28;20038;-67
2023/07/17 23:42:51;;;;;;;10.20;4.88;;;;;;;;;;10327148;28;20100;-67
2023/07/17 23:47:54;;;;;;;8.10;4.88;;;;;;;;;;10309411;28;20150;-68
2023/07/17 23:52:55;;;;;;;6.25;4.43;;;;;;;;;;10315593;28;20125;-68
2023/07/17 23:57:55;;;;;;;8.10;4.45;;;;;;;;;;10323984;28;20128;-68
